Time;durP1;ratioP1;P1;durP2;ratioP2;P2;SDS_P1;SDS_P2;PMS_P1;PMS_P2;Temp;Humidity;BMP_temperature;BMP_pressure;BME280_temperature;BME280_humidity;BME280_pressure;Samples;Min_cycle;Max_cycle;Signal;HPM_P1;HPM_P2
2023/07/04 04:00:28;;;;;;;2.53;1.50;;;13.50;99.90;;;;;;6116134;23;20926;31
2023/07/04 04:02:56;;;;;;;1.90;1.40;;;13.50;99.90;;;;;;4946858;28;20472;-69
2023/07/04 04:05:23;;;;;;;1.53;1.47;;;13.50;99.90;;;;;;4951791;28;20473;-70
2023/07/04 04:07:50;;;;;;;7.43;1.53;;;13.60;99.90;;;;;;4952056;28;20487;-69
2023/07/04 04:10:17;;;;;;;0.73;0.73;;;13.60;99.90;;;;;;4951742;28;20489;-69
2023/07/04 04:12:44;;;;;;;1.40;1.30;;;13.70;99.90;;;;;;4951660;28;20477;-69
2023/07/04 04:15:12;;;;;;;1.10;1.10;;;13.70;99.90;;;;;;4951659;28;20469;-69
2023/07/04 04:17:39;;;;;;;6.73;2.00;;;13.80;99.90;;;;;;4952825;28;20547;-69
2023/07/04 04:20:09;;;;;;;0.73;0.73;;;13.80;99.90;;;;;;4951550;28;20468;-69
2023/07/04 04:22:39;;;;;;;1.33;0.97;;;13.90;99.90;;;;;;4951438;28;20468;-69
2023/07/04 04:25:07;;;;;;;2.87;1.77;;;14.00;99.90;;;;;;4951252;28;20473;-69
2023/07/04 04:27:35;;;;;;;2.57;2.47;;;14.10;99.90;;;;;;4951564;28;20504;-68
2023/07/04 04:30:05;;;;;;;1.60;1.50;;;14.40;99.90;;;;;;4951422;28;20832;-69
2023/07/04 04:32:32;;;;;;;3.60;2.40;;;14.80;99.90;;;;;;4951532;28;20492;-69
2023/07/04 04:34:59;;;;;;;2.10;2.10;;;15.30;99.90;;;;;;4951059;28;20472;-68
2023/07/04 04:37:27;;;;;;;1.33;1.33;;;15.70;99.90;;;;;;4951496;28;20492;-69
2023/07/04 04:39:54;;;;;;;1.57;1.37;;;15.90;99.90;;;;;;4951494;28;20483;-69
2023/07/04 04:42:23;;;;;;;1.80;1.70;;;16.00;99.90;;;;;;4951357;28;20489;-69
2023/07/04 04:44:53;;;;;;;1.10;1.10;;;16.20;99.90;;;;;;4950655;29;20973;-69
2023/07/04 04:47:23;;;;;;;1.37;1.37;;;16.50;99.90;;;;;;4951556;29;20471;-69
2023/07/04 04:49:50;;;;;;;1.97;1.00;;;16.90;99.90;;;;;;4951050;29;20985;-68
2023/07/04 04:52:17;;;;;;;0.80;0.80;;;17.20;99.90;;;;;;4951282;29;20484;-68
2023/07/04 04:54:45;;;;;;;2.90;1.73;;;17.50;99.90;;;;;;4951029;29;20465;-69
2023/07/04 04:57:12;;;;;;;1.03;1.03;;;17.90;99.90;;;;;;4951496;29;20480;-68
2023/07/04 04:59:39;;;;;;;0.90;0.90;;;17.80;99.90;;;;;;4951130;29;20475;-69
2023/07/04 05:02:06;;;;;;;4.83;1.53;;;17.40;99.90;;;;;;4951408;29;20512;-69
2023/07/04 05:04:33;;;;;;;3.03;1.20;;;17.00;99.90;;;;;;4950799;29;20834;-69
2023/07/04 05:07:00;;;;;;;0.87;0.87;;;16.80;99.90;;;;;;4951319;28;20997;-69
2023/07/04 05:09:28;;;;;;;0.83;0.83;;;16.50;99.90;;;;;;4951529;29;20474;-69
2023/07/04 05:11:56;;;;;;;1.33;1.33;;;16.30;99.90;;;;;;4951534;29;20508;-69
2023/07/04 05:14:22;;;;;;;1.47;1.40;;;16.20;99.90;;;;;;4952041;29;20487;-69
2023/07/04 05:16:49;;;;;;;1.43;1.33;;;16.20;99.90;;;;;;4953115;29;20465;-69
2023/07/04 05:19:16;;;;;;;3.03;1.30;;;16.10;99.90;;;;;;4951384;29;20464;-69
2023/07/04 05:21:43;;;;;;;0.90;0.90;;;16.10;99.90;;;;;;4951644;29;20484;-69
2023/07/04 05:24:09;;;;;;;2.37;1.10;;;16.20;99.90;;;;;;4951552;29;20468;-69
2023/07/04 05:26:37;;;;;;;1.10;1.00;;;16.30;99.90;;;;;;4951619;29;20855;-69
2023/07/04 05:29:08;;;;;;;1.43;1.33;;;16.80;99.90;;;;;;4951283;29;20464;-69
2023/07/04 05:31:35;;;;;;;1.90;1.40;;;17.20;99.90;;;;;;4951224;29;20995;-69
2023/07/04 05:34:01;;;;;;;3.07;1.03;;;17.40;99.90;;;;;;4952858;28;20480;-69
2023/07/04 05:36:30;;;;;;;1.00;1.00;;;17.70;99.90;;;;;;4954988;29;20469;-69
2023/07/04 05:39:01;;;;;;;1.30;1.20;;;17.90;99.90;;;;;;4955592;29;20824;-69
2023/07/04 05:41:30;;;;;;;1.23;1.23;;;17.70;99.90;;;;;;4955449;28;20500;-68
2023/07/04 05:43:58;;;;;;;0.90;0.90;;;17.60;99.90;;;;;;4954068;29;20479;-68
2023/07/04 05:46:26;;;;;;;1.13;1.13;;;17.40;99.90;;;;;;4954426;28;20473;-68
2023/07/04 05:48:53;;;;;;;1.30;1.20;;;17.20;99.90;;;;;;4954813;28;20544;-68
2023/07/04 05:51:21;;;;;;;1.13;1.13;;;17.10;99.90;;;;;;4954179;29;20504;-68
2023/07/04 05:53:49;;;;;;;1.07;1.07;;;17.00;99.90;;;;;;4955194;28;20473;-69
2023/07/04 05:56:17;;;;;;;1.93;1.20;;;17.10;99.90;;;;;;4954502;29;20803;-69
2023/07/04 05:58:46;;;;;;;3.53;0.73;;;17.40;99.90;;;;;;4954505;29;20465;-69
2023/07/04 06:01:15;;;;;;;1.10;1.03;;;17.80;99.90;;;;;;4953883;28;20500;-68
2023/07/04 06:03:44;;;;;;;4.30;1.27;;;18.10;99.90;;;;;;4954311;28;20484;-68
2023/07/04 06:06:18;;;;;;;1.10;1.10;;;18.30;99.90;;;;;;4953581;29;20470;-68
2023/07/04 06:08:45;;;;;;;0.50;0.50;;;18.40;99.90;;;;;;4954346;29;20482;-68
2023/07/04 06:11:12;;;;;;;1.60;1.50;;;18.40;99.90;;;;;;4954371;29;20580;-68
2023/07/04 06:13:39;;;;;;;1.83;1.83;;;18.40;99.90;;;;;;4953345;28;20473;-69
2023/07/04 06:16:06;;;;;;;3.90;0.80;;;18.50;99.90;;;;;;4953781;28;20475;-68
2023/07/04 06:18:33;;;;;;;0.80;0.80;;;18.60;99.90;;;;;;4953931;29;20466;-68
2023/07/04 06:21:09;;;;;;;0.83;0.83;;;18.80;99.90;;;;;;4953248;29;20979;-68
2023/07/04 06:23:35;;;;;;;0.60;0.60;;;19.20;99.90;;;;;;4954135;29;20471;-69
2023/07/04 06:26:02;;;;;;;2.63;0.73;;;19.60;99.90;;;;;;4953439;28;20961;-68
2023/07/04 06:28:29;;;;;;;2.97;1.00;;;19.90;99.90;;;;;;4953417;28;20926;-68
2023/07/04 06:30:56;;;;;;;0.70;0.70;;;20.40;99.90;;;;;;4953572;28;20522;-68
2023/07/04 06:33:22;;;;;;;0.73;0.73;;;20.70;99.90;;;;;;4953769;29;20487;-68
2023/07/04 06:35:49;;;;;;;0.80;0.80;;;21.30;99.90;;;;;;4953224;29;20475;-68
2023/07/04 06:38:17;;;;;;;0.40;0.40;;;21.20;99.90;;;;;;4953480;28;20979;-68
2023/07/04 06:40:55;;;;;;;0.40;0.40;;;20.60;99.90;;;;;;4953567;29;20511;-68
2023/07/04 06:43:23;;;;;;;0.70;0.70;;;20.30;99.90;;;;;;4953163;28;20481;-68
2023/07/04 06:45:49;;;;;;;2.70;0.70;;;20.10;99.90;;;;;;4952764;28;20498;-68
2023/07/04 06:48:16;;;;;;;1.17;0.70;;;20.60;99.90;;;;;;4953009;28;20913;-69
2023/07/04 06:50:45;;;;;;;0.80;0.80;;;21.40;99.90;;;;;;4952642;29;20531;-69
2023/07/04 06:53:11;;;;;;;0.57;0.57;;;22.00;99.90;;;;;;4952919;29;20476;-68
2023/07/04 06:55:39;;;;;;;0.60;0.60;;;22.50;99.90;;;;;;4952888;29;20986;-68
2023/07/04 06:58:07;;;;;;;0.80;0.80;;;23.00;99.90;;;;;;4952545;28;20828;-68
2023/07/04 07:00:33;;;;;;;1.80;0.73;;;23.00;99.90;;;;;;4952913;28;20489;-68
2023/07/04 07:03:00;;;;;;;2.07;0.70;;;22.40;99.90;;;;;;4953012;29;20467;-67
2023/07/04 07:05:27;;;;;;;1.63;0.60;;;22.30;99.90;;;;;;4951978;29;20467;-63
2023/07/04 07:07:53;;;;;;;4.00;0.50;;;22.60;99.90;;;;;;4952498;29;20502;-68
2023/07/04 07:10:20;;;;;;;0.73;0.67;;;23.10;99.90;;;;;;4952616;29;20494;-70
2023/07/04 07:12:48;;;;;;;0.67;0.67;;;23.00;99.90;;;;;;4952593;29;20858;-68
2023/07/04 07:15:15;;;;;;;0.60;0.60;;;22.50;99.90;;;;;;4952651;28;20478;-67
2023/07/04 07:17:42;;;;;;;0.67;0.67;;;22.10;99.90;;;;;;4952652;29;20469;-67
2023/07/04 07:20:09;;;;;;;1.50;0.70;;;22.10;99.90;;;;;;4952087;29;20477;-68
2023/07/04 07:22:36;;;;;;;0.57;0.57;;;21.60;99.90;;;;;;4952640;29;20495;-68
2023/07/04 07:25:02;;;;;;;0.70;0.70;;;21.10;99.90;;;;;;4952522;29;21126;-67
2023/07/04 07:27:29;;;;;;;0.53;0.53;;;21.20;99.90;;;;;;4951931;28;20467;-68
2023/07/04 07:29:58;;;;;;;0.70;0.63;;;21.20;99.90;;;;;;4952598;28;20467;-68
2023/07/04 07:32:24;;;;;;;0.50;0.40;;;21.10;99.90;;;;;;4952259;29;20510;-69
2023/07/04 07:34:51;;;;;;;0.50;0.50;;;21.00;99.90;;;;;;4951659;29;20468;-68
2023/07/04 07:37:19;;;;;;;0.63;0.63;;;20.90;99.90;;;;;;4952428;29;20492;-68
2023/07/04 07:39:46;;;;;;;1.13;0.30;;;21.00;99.90;;;;;;4952343;29;20501;-69
2023/07/04 07:42:13;;;;;;;0.33;0.33;;;21.20;99.90;;;;;;4952206;29;20493;-69
2023/07/04 07:44:39;;;;;;;0.53;0.53;;;21.50;99.90;;;;;;4951343;29;20464;-67
2023/07/04 07:47:10;;;;;;;0.93;0.23;;;21.40;99.90;;;;;;4952185;29;20474;-68
2023/07/04 07:49:36;;;;;;;0.40;0.40;;;21.00;99.90;;;;;;4951775;29;20449;-69
2023/07/04 07:52:03;;;;;;;0.80;0.60;;;20.60;99.90;;;;;;4952458;29;20492;-69
2023/07/04 07:54:30;;;;;;;1.27;0.80;;;20.30;99.90;;;;;;4952095;29;20489;-69
2023/07/04 07:56:57;;;;;;;0.43;0.43;;;20.00;99.90;;;;;;4951622;28;20832;-69
2023/07/04 07:59:23;;;;;;;0.50;0.50;;;19.70;99.90;;;;;;4951619;29;20466;-69
2023/07/04 08:01:54;;;;;;;0.43;0.43;;;19.70;99.90;;;;;;4951962;29;21004;-69
2023/07/04 08:04:22;;;;;;;0.63;0.40;;;19.80;99.90;;;;;;4951500;29;20474;-69
2023/07/04 08:06:48;;;;;;;0.50;0.50;;;19.70;99.90;;;;;;4952332;29;20788;-69
2023/07/04 08:09:17;;;;;;;0.40;0.40;;;19.90;99.90;;;;;;4951811;29;20465;-69
2023/07/04 08:11:45;;;;;;;0.50;0.50;;;20.10;99.90;;;;;;4951733;29;20486;-69
2023/07/04 08:14:13;;;;;;;0.30;0.30;;;20.20;99.90;;;;;;4951250;29;20472;-69
2023/07/04 08:16:45;;;;;;;0.30;0.30;;;20.40;99.90;;;;;;4951971;29;20507;-70
2023/07/04 08:19:12;;;;;;;2.10;0.73;;;20.30;99.90;;;;;;4951177;29;20619;-69
2023/07/04 08:21:40;;;;;;;0.40;0.40;;;20.40;99.90;;;;;;4952139;29;20487;-69
2023/07/04 08:24:10;;;;;;;0.50;0.40;;;20.40;99.90;;;;;;4951693;29;20985;-71
2023/07/04 08:26:39;;;;;;;0.50;0.50;;;20.30;99.90;;;;;;4952061;29;20977;-70
2023/07/04 08:29:07;;;;;;;0.50;0.50;;;20.10;99.90;;;;;;4951212;28;20490;-70
2023/07/04 08:31:34;;;;;;;0.20;0.20;;;20.00;99.90;;;;;;4951938;29;20495;-70
2023/07/04 08:34:01;;;;;;;2.47;0.50;;;19.80;99.90;;;;;;4951442;29;20468;-69
2023/07/04 08:36:28;;;;;;;1.40;0.40;;;19.80;99.90;;;;;;4951489;29;20463;-69
2023/07/04 08:38:56;;;;;;;0.30;0.30;;;19.70;99.90;;;;;;4951723;29;20556;-69
2023/07/04 08:41:31;;;;;;;2.33;0.80;;;19.90;99.90;;;;;;4951607;29;20491;-68
2023/07/04 08:44:04;;;;;;;3.77;0.90;;;20.10;99.90;;;;;;4951206;29;20465;-68
2023/07/04 08:46:36;;;;;;;0.40;0.40;;;20.00;99.90;;;;;;4951815;28;20600;-69
2023/07/04 08:49:04;;;;;;;0.30;0.30;;;20.10;99.90;;;;;;4951664;29;20471;-69
2023/07/04 08:51:36;;;;;;;0.90;0.60;;;20.10;99.90;;;;;;4951217;29;20497;-69
2023/07/04 08:54:09;;;;;;;0.30;0.30;;;19.90;99.90;;;;;;4951067;29;20475;-70
2023/07/04 08:56:38;;;;;;;0.37;0.37;;;19.70;99.90;;;;;;4951994;28;20472;-69
2023/07/04 08:59:14;;;;;;;0.30;0.30;;;19.60;99.90;;;;;;4951352;29;20543;-69
2023/07/04 09:02:01;;;;;;;0.43;0.43;;;19.60;99.90;;;;;;4951722;29;20525;-69
2023/07/04 09:04:37;;;;;;;0.30;0.30;;;19.80;99.90;;;;;;4950785;29;20476;-69
2023/07/04 09:07:12;;;;;;;0.50;0.43;;;20.20;99.90;;;;;;4952494;28;20478;-69
2023/07/04 09:09:48;;;;;;;0.60;0.60;;;20.10;99.90;;;;;;4955496;29;20493;-69
2023/07/04 09:12:15;;;;;;;0.40;0.40;;;20.60;99.90;;;;;;4955220;28;20493;-69
2023/07/04 09:14:47;;;;;;;0.60;0.60;;;21.20;99.90;;;;;;4954963;28;20853;-69
2023/07/04 09:17:23;;;;;;;2.23;0.60;;;21.60;99.90;;;;;;4955507;29;20957;-69
2023/07/04 09:19:50;;;;;;;0.97;0.60;;;21.50;99.90;;;;;;4954980;28;20941;-69
2023/07/04 09:22:18;;;;;;;0.40;0.40;;;21.40;99.90;;;;;;4955285;29;20995;-69
2023/07/04 09:24:47;;;;;;;2.00;1.10;;;21.30;99.90;;;;;;4954953;29;20981;-69
2023/07/04 09:27:16;;;;;;;0.20;0.20;;;21.00;99.90;;;;;;4955327;28;20483;-69
2023/07/04 09:29:44;;;;;;;0.80;0.40;;;21.00;99.90;;;;;;4955324;29;20464;-69
2023/07/04 09:32:12;;;;;;;0.97;0.70;;;21.10;99.90;;;;;;4956295;29;20569;-69
2023/07/04 09:34:47;;;;;;;0.50;0.50;;;21.30;99.90;;;;;;4955787;29;20472;-69
2023/07/04 09:37:17;;;;;;;0.30;0.30;;;21.50;99.90;;;;;;4959546;29;20472;-69
2023/07/04 09:39:50;;;;;;;0.57;0.57;;;21.70;99.90;;;;;;4957667;28;20973;-70
2023/07/04 09:42:17;;;;;;;2.83;0.57;;;21.90;99.90;;;;;;4957478;28;20498;-69
2023/07/04 09:44:45;;;;;;;0.40;0.40;;;21.90;99.90;;;;;;4954404;29;20497;-69
2023/07/04 09:47:21;;;;;;;0.33;0.33;;;21.80;99.90;;;;;;4955408;29;20466;-69
2023/07/04 09:49:48;;;;;;;1.07;0.70;;;21.80;99.90;;;;;;4954375;29;20532;-69
2023/07/04 09:52:26;;;;;;;0.50;0.50;;;21.70;99.90;;;;;;4954739;28;20584;-68
2023/07/04 09:55:10;;;;;;;0.43;0.43;;;21.50;99.90;;;;;;4954978;28;20469;-69
2023/07/04 09:57:37;;;;;;;0.50;0.43;;;21.10;99.90;;;;;;4954662;28;20476;-71
2023/07/04 10:00:17;;;;;;;0.57;0.57;;;20.90;99.90;;;;;;4956664;29;20480;-69
2023/07/04 10:02:45;;;;;;;0.50;0.50;;;20.70;99.90;;;;;;4958810;28;20471;-70
2023/07/04 10:05:25;;;;;;;0.57;0.57;;;20.40;99.90;;;;;;4956124;29;20470;-70
2023/07/04 10:08:08;;;;;;;0.33;0.33;;;20.10;99.90;;;;;;4955902;29;20982;-70
2023/07/04 10:10:39;;;;;;;0.30;0.30;;;20.00;99.90;;;;;;4953520;28;20497;-69
2023/07/04 10:13:08;;;;;;;0.40;0.40;;;19.90;99.90;;;;;;4954206;29;20512;-70
2023/07/04 10:15:41;;;;;;;0.60;0.60;;;19.80;99.90;;;;;;4954525;29;20544;-70
2023/07/04 10:18:22;;;;;;;0.50;0.50;;;19.60;99.90;;;;;;4955066;28;20464;-69
2023/07/04 10:20:53;;;;;;;0.40;0.40;;;19.40;99.90;;;;;;4997666;22;20509;-70
2023/07/04 10:23:21;;;;;;;1.80;0.40;;;19.40;99.90;;;;;;4993178;28;20466;-69
2023/07/04 10:25:51;;;;;;;0.40;0.40;;;19.80;99.90;;;;;;4992533;28;20452;-70
2023/07/04 10:28:20;;;;;;;0.50;0.50;;;20.20;99.90;;;;;;4992679;28;20568;-70
2023/07/04 10:30:51;;;;;;;0.30;0.30;;;20.50;99.90;;;;;;4992929;28;20489;-69
2023/07/04 10:33:24;;;;;;;1.20;0.40;;;20.70;99.90;;;;;;4992868;28;20588;-70
2023/07/04 10:35:52;;;;;;;0.50;0.50;;;20.80;99.90;;;;;;4992294;28;20934;-69
2023/07/04 10:38:31;;;;;;;0.70;0.70;;;20.70;99.90;;;;;;4992958;28;20469;-70
2023/07/04 10:41:00;;;;;;;0.73;0.63;;;20.80;99.90;;;;;;4992414;28;20496;-68
2023/07/04 10:43:33;;;;;;;0.60;0.47;;;20.80;99.90;;;;;;5003930;28;20461;-69
2023/07/04 10:46:02;;;;;;;0.50;0.50;;;20.90;99.90;;;;;;5011806;28;20468;-70
2023/07/04 10:48:32;;;;;;;0.40;0.40;;;20.90;99.90;;;;;;5012737;28;20469;-70
2023/07/04 10:51:07;;;;;;;0.70;0.70;;;20.90;99.90;;;;;;5013331;28;20488;-70
2023/07/04 10:53:34;;;;;;;0.33;0.33;;;20.90;99.90;;;;;;5014184;28;20488;-69
2023/07/04 10:56:06;;;;;;;0.23;0.23;;;21.00;99.90;;;;;;5012579;28;20462;-69
2023/07/04 10:58:40;;;;;;;0.30;0.30;;;21.10;99.90;;;;;;5012215;28;20469;-70
2023/07/04 11:01:12;;;;;;;0.23;0.23;;;21.30;99.90;;;;;;5012039;28;21019;-70
2023/07/04 11:03:46;;;;;;;0.97;0.83;;;21.60;99.90;;;;;;5012596;28;20572;-70
2023/07/04 11:06:18;;;;;;;0.60;0.60;;;21.80;99.90;;;;;;5012999;28;20547;-70
2023/07/04 11:08:46;;;;;;;0.50;0.50;;;22.00;99.90;;;;;;5013123;28;20521;-69
2023/07/04 11:11:20;;;;;;;0.30;0.30;;;21.90;99.90;;;;;;5013066;28;20484;-69
2023/07/04 11:13:50;;;;;;;0.30;0.30;;;21.80;99.90;;;;;;5012596;28;20462;-69
2023/07/04 11:16:18;;;;;;;0.70;0.70;;;21.80;99.90;;;;;;5011866;28;20472;-70
2023/07/04 11:19:03;;;;;;;0.60;0.60;;;21.70;99.90;;;;;;5011476;28;20465;-70
2023/07/04 11:21:30;;;;;;;0.57;0.57;;;21.70;99.90;;;;;;5010983;28;20469;-70
2023/07/04 11:24:12;;;;;;;0.47;0.47;;;21.80;99.90;;;;;;5011129;28;20467;-70
2023/07/04 11:26:57;;;;;;;0.43;0.43;;;21.90;99.90;;;;;;5011638;28;20468;-70
2023/07/04 11:29:24;;;;;;;0.40;0.40;;;21.90;99.90;;;;;;5010786;28;20496;-70
2023/07/04 11:32:13;;;;;;;0.60;0.60;;;21.90;99.90;;;;;;5011216;28;20484;-71
2023/07/04 11:34:45;;;;;;;0.60;0.60;;;21.80;99.90;;;;;;5010802;28;20846;-70
2023/07/04 11:37:17;;;;;;;2.13;0.87;;;21.80;99.90;;;;;;5011372;28;20505;-70
2023/07/04 11:39:52;;;;;;;0.30;0.30;;;21.80;99.90;;;;;;5011005;28;20489;-70
2023/07/04 11:42:23;;;;;;;1.43;0.87;;;21.90;99.90;;;;;;5010088;28;20489;-70
2023/07/04 11:45:00;;;;;;;0.40;0.40;;;22.00;99.90;;;;;;5010245;28;21041;-70
2023/07/04 11:47:35;;;;;;;0.50;0.50;;;22.30;99.90;;;;;;5011296;28;20570;-70
2023/07/04 11:50:07;;;;;;;0.30;0.30;;;22.40;99.90;;;;;;5010817;28;20546;-70
2023/07/04 11:52:34;;;;;;;0.47;0.47;;;22.60;99.90;;;;;;5010807;28;20488;-71
2023/07/04 11:55:07;;;;;;;0.30;0.30;;;22.70;99.90;;;;;;5010582;28;20483;-71
2023/07/04 11:58:01;;;;;;;0.50;0.50;;;22.60;99.90;;;;;;5010527;28;20537;-70
2023/07/04 12:01:05;;;;;;;0.60;0.60;;;22.40;99.90;;;;;;5010912;28;20481;-71
2023/07/04 12:03:55;;;;;;;0.67;0.67;;;22.20;99.90;;;;;;4949998;29;20466;-70
2023/07/04 12:07:01;;;;;;;0.40;0.40;;;22.00;99.90;;;;;;5008354;28;20469;-70
2023/07/04 12:09:37;;;;;;;0.40;0.40;;;21.70;99.90;;;;;;5010547;28;20540;-71
2023/07/04 12:12:06;;;;;;;0.30;0.30;;;21.50;99.90;;;;;;5010480;28;20593;-71
2023/07/04 12:14:38;;;;;;;0.57;0.57;;;21.50;99.90;;;;;;5010077;28;20824;-70
2023/07/04 12:17:05;;;;;;;2.00;0.70;;;21.60;99.90;;;;;;5010904;28;20473;-69
2023/07/04 12:19:32;;;;;;;0.50;0.50;;;21.50;99.90;;;;;;5010059;28;20487;-70
2023/07/04 12:21:59;;;;;;;0.40;0.40;;;21.50;99.90;;;;;;5010719;28;20984;-70
2023/07/04 12:24:26;;;;;;;0.50;0.40;;;21.30;99.90;;;;;;5010263;28;20476;-71
2023/07/04 12:26:54;;;;;;;0.40;0.40;;;21.10;99.90;;;;;;5010860;28;20523;-71
2023/07/04 12:29:21;;;;;;;0.40;0.40;;;21.00;99.90;;;;;;5010180;28;20574;-70
2023/07/04 12:32:07;;;;;;;0.30;0.30;;;20.90;99.90;;;;;;5010473;28;21017;-71
2023/07/04 12:34:34;;;;;;;0.40;0.40;;;20.80;99.90;;;;;;5009769;28;20467;-71
2023/07/04 12:37:05;;;;;;;0.80;0.50;;;20.80;99.90;;;;;;5010360;28;20499;-70
2023/07/04 12:39:38;;;;;;;0.40;0.40;;;20.70;99.90;;;;;;5010534;28;21008;-70
2023/07/04 12:42:06;;;;;;;0.70;0.70;;;20.50;99.90;;;;;;5010290;28;20466;-71
2023/07/04 12:44:36;;;;;;;0.40;0.40;;;20.40;99.90;;;;;;5013554;28;20517;-70
2023/07/04 12:47:10;;;;;;;0.77;0.77;;;20.30;99.90;;;;;;5014418;28;20462;-71
2023/07/04 12:49:37;;;;;;;1.53;0.43;;;20.30;99.90;;;;;;5013700;28;20482;-71
2023/07/04 12:52:05;;;;;;;0.47;0.47;;;20.20;99.90;;;;;;5014351;28;20830;-70
2023/07/04 12:54:34;;;;;;;0.43;0.43;;;20.10;99.90;;;;;;5013935;28;20462;-70
2023/07/04 12:57:02;;;;;;;0.67;0.60;;;19.90;99.90;;;;;;5014072;28;20996;-71
2023/07/04 12:59:33;;;;;;;0.80;0.80;;;19.70;99.90;;;;;;5013826;28;20478;-70
2023/07/04 13:02:09;;;;;;;0.53;0.53;;;19.50;99.90;;;;;;5014065;28;20480;-69
2023/07/04 13:04:36;;;;;;;0.40;0.40;;;19.40;99.90;;;;;;5013460;28;20458;-69
2023/07/04 13:07:03;;;;;;;0.87;0.40;;;19.30;99.90;;;;;;5014312;28;20466;-70
2023/07/04 13:09:30;;;;;;;0.43;0.43;;;19.20;99.90;;;;;;5013719;28;20829;-70
2023/07/04 13:11:58;;;;;;;0.53;0.53;;;19.00;99.90;;;;;;5013885;28;20465;-71
2023/07/04 13:14:29;;;;;;;0.43;0.30;;;18.80;99.90;;;;;;5013170;28;20462;-70
2023/07/04 13:17:10;;;;;;;0.87;0.50;;;18.60;99.90;;;;;;5013975;28;20476;-70
2023/07/04 13:19:40;;;;;;;0.30;0.30;;;18.40;99.90;;;;;;5013574;28;20548;-71
2023/07/04 13:22:14;;;;;;;0.30;0.30;;;18.40;99.90;;;;;;5012830;28;20462;-70
2023/07/04 13:24:41;;;;;;;0.27;0.27;;;18.40;99.90;;;;;;5011988;28;20953;-71
2023/07/04 13:27:16;;;;;;;0.53;0.40;;;18.30;99.90;;;;;;5012142;28;20469;-71
2023/07/04 13:29:55;;;;;;;0.30;0.30;;;18.30;99.90;;;;;;5011633;28;20964;-69
2023/07/04 13:32:26;;;;;;;0.30;0.30;;;18.40;99.90;;;;;;5012329;28;20484;-70
2023/07/04 13:34:53;;;;;;;0.30;0.30;;;18.40;99.90;;;;;;5011617;28;20465;-70
2023/07/04 13:37:20;;;;;;;0.93;0.70;;;18.50;99.90;;;;;;5011987;28;20477;-71
2023/07/04 13:39:48;;;;;;;0.60;0.60;;;18.60;99.90;;;;;;5012279;28;20504;-70
2023/07/04 13:42:16;;;;;;;0.73;0.73;;;18.60;99.90;;;;;;5012201;28;20527;-70
2023/07/04 13:44:45;;;;;;;0.40;0.40;;;18.80;99.90;;;;;;5012020;28;20939;-70
2023/07/04 13:47:13;;;;;;;0.53;0.53;;;18.90;99.90;;;;;;5012133;28;20556;-70
2023/07/04 13:49:42;;;;;;;0.50;0.50;;;19.10;99.90;;;;;;5011445;28;20593;-71
2023/07/04 13:52:09;;;;;;;0.70;0.70;;;19.20;99.90;;;;;;5011873;28;20466;-71
2023/07/04 13:54:36;;;;;;;1.17;0.70;;;19.40;99.90;;;;;;5010489;28;20981;-70
2023/07/04 13:57:03;;;;;;;0.37;0.37;;;19.60;99.90;;;;;;5012010;28;20524;-70
2023/07/04 13:59:30;;;;;;;0.80;0.53;;;19.80;99.90;;;;;;5011528;28;20485;-70
2023/07/04 14:01:57;;;;;;;2.43;2.33;;;19.80;99.90;;;;;;5011923;28;20804;-70
2023/07/04 14:04:24;;;;;;;0.70;0.70;;;19.90;99.90;;;;;;5011123;28;20459;-70
2023/07/04 14:06:52;;;;;;;0.30;0.30;;;19.90;99.90;;;;;;5011733;28;20954;-70
2023/07/04 14:09:20;;;;;;;0.73;0.60;;;19.80;99.90;;;;;;5011698;28;20462;-70
2023/07/04 14:11:46;;;;;;;0.30;0.30;;;19.50;99.90;;;;;;5011771;28;20954;-71
2023/07/04 14:14:13;;;;;;;0.30;0.30;;;19.40;99.90;;;;;;5010969;28;20485;-69
2023/07/04 14:16:40;;;;;;;0.20;0.20;;;19.40;99.90;;;;;;5011755;28;20478;-70
2023/07/04 14:19:07;;;;;;;0.47;0.47;;;19.50;99.90;;;;;;5006419;28;1061698;-70
2023/07/04 14:21:34;;;;;;;0.30;0.30;;;19.60;99.90;;;;;;5012931;28;20818;-69
2023/07/04 14:24:02;;;;;;;0.53;0.53;;;19.60;99.90;;;;;;5012863;28;20471;-70
2023/07/04 14:26:29;;;;;;;0.70;0.53;;;19.30;99.90;;;;;;5012631;28;20465;-71
2023/07/04 14:28:56;;;;;;;0.93;0.50;;;19.30;99.90;;;;;;5012183;28;20992;-71
2023/07/04 14:31:23;;;;;;;0.63;0.63;;;19.30;99.90;;;;;;5012509;28;20800;-71
2023/07/04 14:33:50;;;;;;;0.40;0.40;;;19.40;99.90;;;;;;5012852;28;20490;-71
2023/07/04 14:36:17;;;;;;;0.97;0.90;;;19.30;99.90;;;;;;5012464;28;20855;-71
2023/07/04 14:38:44;;;;;;;0.87;0.67;;;19.20;99.90;;;;;;5012816;28;20606;-71
2023/07/04 14:41:13;;;;;;;0.33;0.33;;;19.20;99.90;;;;;;5012565;28;20481;-71
2023/07/04 14:43:41;;;;;;;0.37;0.30;;;19.30;99.90;;;;;;4997300;28;20470;-71
2023/07/04 14:46:09;;;;;;;0.63;0.63;;;19.40;99.90;;;;;;5010484;28;20465;-71
2023/07/04 14:48:37;;;;;;;2.33;0.40;;;19.50;99.90;;;;;;5012433;28;20462;-71
2023/07/04 14:51:05;;;;;;;0.30;0.30;;;19.60;99.90;;;;;;5012198;28;20535;-71
2023/07/04 14:53:33;;;;;;;0.63;0.63;;;19.70;99.90;;;;;;5012117;28;20482;-71
2023/07/04 14:56:01;;;;;;;0.40;0.40;;;19.70;99.90;;;;;;5011891;28;20818;-72
2023/07/04 14:58:29;;;;;;;2.00;0.50;;;20.00;99.90;;;;;;5011651;28;21012;-71
2023/07/04 15:00:57;;;;;;;0.73;0.67;;;20.20;99.90;;;;;;5012292;28;20478;-71
2023/07/04 15:03:24;;;;;;;0.30;0.30;;;20.20;99.90;;;;;;5012624;28;20822;-71
2023/07/04 15:05:51;;;;;;;0.43;0.43;;;20.30;99.90;;;;;;5014533;28;20470;-71
2023/07/04 15:08:17;;;;;;;1.73;0.40;;;20.40;99.90;;;;;;5015690;28;20462;-71
2023/07/04 15:10:45;;;;;;;0.70;0.70;;;20.60;99.90;;;;;;5012630;28;20806;-71
2023/07/04 15:13:12;;;;;;;0.50;0.50;;;20.60;99.90;;;;;;5012662;28;20521;-71
2023/07/04 15:15:40;;;;;;;0.60;0.60;;;20.50;99.90;;;;;;5012656;28;20467;-72
2023/07/04 15:18:07;;;;;;;0.83;0.83;;;20.40;99.90;;;;;;5012205;28;20462;-71
2023/07/04 15:20:33;;;;;;;3.03;0.60;;;20.40;99.90;;;;;;5011519;28;20499;-71
2023/07/04 15:23:00;;;;;;;0.60;0.60;;;20.30;99.90;;;;;;5011987;28;20477;-71
2023/07/04 15:25:29;;;;;;;0.60;0.60;;;20.10;99.90;;;;;;5011961;28;20477;-70
2023/07/04 15:27:55;;;;;;;0.30;0.30;;;19.70;99.90;;;;;;5011537;28;20462;-70
2023/07/04 15:30:22;;;;;;;0.40;0.40;;;19.90;99.90;;;;;;5011626;28;20482;-70
2023/07/04 15:32:50;;;;;;;0.43;0.40;;;19.90;99.90;;;;;;5011386;28;20470;-71
2023/07/04 15:35:17;;;;;;;0.40;0.40;;;19.80;99.90;;;;;;5010734;28;20477;-70
2023/07/04 15:37:44;;;;;;;0.50;0.50;;;19.50;99.90;;;;;;5011576;28;20490;-70
2023/07/04 15:40:12;;;;;;;0.50;0.50;;;19.40;99.90;;;;;;5010772;28;20489;-71
2023/07/04 15:42:49;;;;;;;0.40;0.40;;;19.30;99.90;;;;;;5004311;28;21001;-71
2023/07/04 15:45:16;;;;;;;0.30;0.30;;;19.20;99.90;;;;;;5002481;28;20568;-71
2023/07/04 15:47:43;;;;;;;0.30;0.30;;;19.40;99.90;;;;;;5011211;28;20469;-70
2023/07/04 15:50:12;;;;;;;0.30;0.30;;;19.70;99.90;;;;;;5010556;28;20486;-70
2023/07/04 15:52:38;;;;;;;0.33;0.33;;;19.70;99.90;;;;;;5010820;28;20466;-71
2023/07/04 15:55:06;;;;;;;0.30;0.30;;;19.90;99.90;;;;;;5010716;28;20523;-71
2023/07/04 15:57:33;;;;;;;0.20;0.20;;;19.90;99.90;;;;;;5010405;28;20473;-71
2023/07/04 15:59:59;;;;;;;0.30;0.30;;;20.00;99.90;;;;;;5011135;28;20490;-71
2023/07/04 16:02:26;;;;;;;0.87;0.87;;;20.10;99.90;;;;;;5010809;28;20953;-71
2023/07/04 16:04:53;;;;;;;0.30;0.30;;;20.00;99.90;;;;;;5010359;28;20468;-71
2023/07/04 16:07:21;;;;;;;3.90;1.30;;;19.80;99.90;;;;;;5010604;28;20493;-71
2023/07/04 16:09:48;;;;;;;0.20;0.20;;;19.80;99.90;;;;;;5010763;28;20898;-70
2023/07/04 16:12:14;;;;;;;0.20;0.20;;;19.70;99.90;;;;;;5010729;28;20470;-71
2023/07/04 16:14:42;;;;;;;0.47;0.47;;;19.90;99.90;;;;;;5009968;28;20497;-70
2023/07/04 16:17:08;;;;;;;0.40;0.40;;;20.10;99.90;;;;;;5009954;28;20492;-71
2023/07/04 16:19:35;;;;;;;0.50;0.50;;;20.20;99.90;;;;;;5010093;28;20764;-71
2023/07/04 16:22:02;;;;;;;0.90;0.27;;;20.30;99.90;;;;;;5034400;23;21063;-73
2023/07/04 16:24:30;;;;;;;0.37;0.37;;;20.10;99.90;;;;;;5010719;28;20477;-73
2023/07/04 16:26:57;;;;;;;0.37;0.37;;;20.00;99.90;;;;;;5011117;28;20465;-73
2023/07/04 16:29:24;;;;;;;1.93;0.47;;;20.20;99.90;;;;;;5010074;28;20830;-72
2023/07/04 16:31:50;;;;;;;0.77;0.77;;;20.30;99.90;;;;;;4996723;28;20483;-72
2023/07/04 16:34:17;;;;;;;0.40;0.40;;;20.20;99.90;;;;;;4990279;28;20926;-72
2023/07/04 16:36:44;;;;;;;0.50;0.50;;;20.20;99.90;;;;;;4990969;28;20820;-71
2023/07/04 16:39:10;;;;;;;0.40;0.40;;;20.30;99.90;;;;;;4991297;28;20482;-72
2023/07/04 16:41:38;;;;;;;0.77;0.77;;;20.30;99.90;;;;;;4991015;28;20491;-72
2023/07/04 16:44:05;;;;;;;0.40;0.40;;;20.40;99.90;;;;;;4990266;28;20463;-72
2023/07/04 16:46:32;;;;;;;0.70;0.70;;;20.50;99.90;;;;;;4991002;28;20459;-71
2023/07/04 16:48:59;;;;;;;0.43;0.43;;;20.30;99.90;;;;;;4990627;28;20470;-72
2023/07/04 16:51:25;;;;;;;0.30;0.30;;;20.30;99.90;;;;;;4990764;28;20487;-72
2023/07/04 16:53:52;;;;;;;0.87;0.30;;;20.30;99.90;;;;;;4991121;28;20875;-72
2023/07/04 16:56:20;;;;;;;8.10;1.30;;;20.40;99.90;;;;;;4990655;28;20467;-73
2023/07/04 16:58:48;;;;;;;0.50;0.50;;;20.60;99.90;;;;;;4990212;28;20974;-72